sensor_id;sensor_type;location;lat;lon;timestamp;temperature;humidity
38488;DHT22;57384;51.986;4.458;2023-03-03T00:01:28;4.30;70.50
38488;DHT22;57384;51.986;4.458;2023-03-03T00:03:54;4.20;70.50
38488;DHT22;57384;51.986;4.458;2023-03-03T00:06:21;4.20;70.50
38488;DHT22;57384;51.986;4.458;2023-03-03T00:08:48;4.20;70.50
38488;DHT22;57384;51.986;4.458;2023-03-03T00:11:17;4.20;70.50
38488;DHT22;57384;51.986;4.458;2023-03-03T00:13:46;4.20;70.50
38488;DHT22;57384;51.986;4.458;2023-03-03T00:16:14;4.20;70.50
38488;DHT22;57384;51.986;4.458;2023-03-03T00:18:42;4.20;70.60
38488;DHT22;57384;51.986;4.458;2023-03-03T00:26:45;4.10;70.50
38488;DHT22;57384;51.986;4.458;2023-03-03T00:34:52;4.10;70.60
38488;DHT22;57384;51.986;4.458;2023-03-03T00:37:24;4.00;70.60
38488;DHT22;57384;51.986;4.458;2023-03-03T00:39:51;4.00;70.60
38488;DHT22;57384;51.986;4.458;2023-03-03T00:42:25;4.00;70.60
38488;DHT22;57384;51.986;4.458;2023-03-03T00:44:56;3.90;70.60
38488;DHT22;57384;51.986;4.458;2023-03-03T00:47:27;3.90;70.60
38488;DHT22;57384;51.986;4.458;2023-03-03T00:52:37;3.90;70.60
38488;DHT22;57384;51.986;4.458;2023-03-03T00:55:04;3.90;70.70
38488;DHT22;57384;51.986;4.458;2023-03-03T00:57:34;3.80;70.60
38488;DHT22;57384;51.986;4.458;2023-03-03T01:00:03;3.90;70.60
38488;DHT22;57384;51.986;4.458;2023-03-03T01:02:33;3.80;70.60
38488;DHT22;57384;51.986;4.458;2023-03-03T01:05:01;3.80;70.60
38488;DHT22;57384;51.986;4.458;2023-03-03T01:07:30;3.80;70.70
38488;DHT22;57384;51.986;4.458;2023-03-03T01:09:57;3.70;70.70
38488;DHT22;57384;51.986;4.458;2023-03-03T01:12:23;3.70;70.70
38488;DHT22;57384;51.986;4.458;2023-03-03T01:14:55;3.70;70.70
38488;DHT22;57384;51.986;4.458;2023-03-03T01:17:22;3.70;70.70
38488;DHT22;57384;51.986;4.458;2023-03-03T01:19:48;3.60;70.70
38488;DHT22;57384;51.986;4.458;2023-03-03T01:22:15;3.60;70.70
38488;DHT22;57384;51.986;4.458;2023-03-03T01:24:41;3.60;70.70
38488;DHT22;57384;51.986;4.458;2023-03-03T01:27:09;3.50;70.70
38488;DHT22;57384;51.986;4.458;2023-03-03T01:29:36;3.60;70.70
38488;DHT22;57384;51.986;4.458;2023-03-03T01:32:10;3.50;70.70
38488;DHT22;57384;51.986;4.458;2023-03-03T01:34:36;3.50;70.70
38488;DHT22;57384;51.986;4.458;2023-03-03T01:37:05;3.50;70.70
38488;DHT22;57384;51.986;4.458;2023-03-03T01:39:31;3.50;70.60
38488;DHT22;57384;51.986;4.458;2023-03-03T01:41:58;3.50;70.70
38488;DHT22;57384;51.986;4.458;2023-03-03T01:44:24;3.50;70.70
38488;DHT22;57384;51.986;4.458;2023-03-03T01:47:04;3.40;70.60
38488;DHT22;57384;51.986;4.458;2023-03-03T01:52:00;3.40;70.60
38488;DHT22;57384;51.986;4.458;2023-03-03T01:54:33;3.40;70.60
38488;DHT22;57384;51.986;4.458;2023-03-03T01:57:02;3.40;70.60
38488;DHT22;57384;51.986;4.458;2023-03-03T01:59:31;3.40;70.60
38488;DHT22;57384;51.986;4.458;2023-03-03T02:01:58;3.40;70.60
38488;DHT22;57384;51.986;4.458;2023-03-03T02:04:25;3.30;70.60
38488;DHT22;57384;51.986;4.458;2023-03-03T02:06:59;3.40;70.60
38488;DHT22;57384;51.986;4.458;2023-03-03T02:09:29;3.40;70.60
38488;DHT22;57384;51.986;4.458;2023-03-03T02:11:58;3.40;70.60
38488;DHT22;57384;51.986;4.458;2023-03-03T02:14:26;3.30;70.60
38488;DHT22;57384;51.986;4.458;2023-03-03T02:16:52;3.30;70.60
38488;DHT22;57384;51.986;4.458;2023-03-03T02:21:55;3.30;70.60
38488;DHT22;57384;51.986;4.458;2023-03-03T02:24:25;3.40;70.60
38488;DHT22;57384;51.986;4.458;2023-03-03T02:26:52;3.30;70.60
38488;DHT22;57384;51.986;4.458;2023-03-03T02:29:19;3.30;70.60
38488;DHT22;57384;51.986;4.458;2023-03-03T02:31:45;3.30;70.60
38488;DHT22;57384;51.986;4.458;2023-03-03T02:34:12;3.30;70.60
38488;DHT22;57384;51.986;4.458;2023-03-03T02:36:38;3.20;70.50
38488;DHT22;57384;51.986;4.458;2023-03-03T02:39:26;3.20;70.60
38488;DHT22;57384;51.986;4.458;2023-03-03T02:44:22;3.30;70.60
38488;DHT22;57384;51.986;4.458;2023-03-03T02:46:49;3.20;70.60
38488;DHT22;57384;51.986;4.458;2023-03-03T02:49:18;3.30;70.60
38488;DHT22;57384;51.986;4.458;2023-03-03T02:51:45;3.20;70.60
38488;DHT22;57384;51.986;4.458;2023-03-03T02:54:12;3.20;70.60
38488;DHT22;57384;51.986;4.458;2023-03-03T02:56:39;3.20;70.60
38488;DHT22;57384;51.986;4.458;2023-03-03T02:59:05;3.20;70.60
38488;DHT22;57384;51.986;4.458;2023-03-03T03:01:32;3.30;70.60
38488;DHT22;57384;51.986;4.458;2023-03-03T03:03:59;3.20;70.60
38488;DHT22;57384;51.986;4.458;2023-03-03T03:06:25;3.20;70.60
38488;DHT22;57384;51.986;4.458;2023-03-03T03:08:52;3.20;70.60
38488;DHT22;57384;51.986;4.458;2023-03-03T03:11:18;3.20;70.70
38488;DHT22;57384;51.986;4.458;2023-03-03T03:13:45;3.20;70.70
38488;DHT22;57384;51.986;4.458;2023-03-03T03:16:14;3.20;70.60
38488;DHT22;57384;51.986;4.458;2023-03-03T03:18:43;3.20;70.70
38488;DHT22;57384;51.986;4.458;2023-03-03T03:21:10;3.20;70.60
38488;DHT22;57384;51.986;4.458;2023-03-03T03:23:38;3.30;70.70
38488;DHT22;57384;51.986;4.458;2023-03-03T03:26:05;3.20;70.70
38488;DHT22;57384;51.986;4.458;2023-03-03T03:28:31;3.20;70.70
38488;DHT22;57384;51.986;4.458;2023-03-03T03:30:58;3.10;70.60
38488;DHT22;57384;51.986;4.458;2023-03-03T03:33:25;3.20;70.70
38488;DHT22;57384;51.986;4.458;2023-03-03T03:35:51;3.20;70.70
38488;DHT22;57384;51.986;4.458;2023-03-03T03:38:18;3.20;70.70
38488;DHT22;57384;51.986;4.458;2023-03-03T03:40:44;3.20;70.70
38488;DHT22;57384;51.986;4.458;2023-03-03T03:43:13;3.20;70.70
38488;DHT22;57384;51.986;4.458;2023-03-03T03:45:42;3.20;70.60
38488;DHT22;57384;51.986;4.458;2023-03-03T03:48:09;3.20;70.60
38488;DHT22;57384;51.986;4.458;2023-03-03T03:50:36;3.20;70.60
38488;DHT22;57384;51.986;4.458;2023-03-03T03:53:03;3.30;70.70
38488;DHT22;57384;51.986;4.458;2023-03-03T03:55:29;3.30;70.70
38488;DHT22;57384;51.986;4.458;2023-03-03T03:57:56;3.20;70.60
38488;DHT22;57384;51.986;4.458;2023-03-03T04:00:23;3.30;70.80
38488;DHT22;57384;51.986;4.458;2023-03-03T04:02:49;3.30;70.70
38488;DHT22;57384;51.986;4.458;2023-03-03T04:05:16;3.30;70.70
38488;DHT22;57384;51.986;4.458;2023-03-03T04:07:42;3.30;70.70
38488;DHT22;57384;51.986;4.458;2023-03-03T04:10:09;3.30;70.80
38488;DHT22;57384;51.986;4.458;2023-03-03T04:12:35;3.40;70.80
38488;DHT22;57384;51.986;4.458;2023-03-03T04:15:02;3.40;70.80
38488;DHT22;57384;51.986;4.458;2023-03-03T04:17:29;3.40;70.80
38488;DHT22;57384;51.986;4.458;2023-03-03T04:19:55;3.40;70.80
38488;DHT22;57384;51.986;4.458;2023-03-03T04:22:22;3.40;70.80
38488;DHT22;57384;51.986;4.458;2023-03-03T04:24:48;3.40;70.80
38488;DHT22;57384;51.986;4.458;2023-03-03T04:27:15;3.40;70.80
38488;DHT22;57384;51.986;4.458;2023-03-03T04:29:41;3.50;70.90
38488;DHT22;57384;51.986;4.458;2023-03-03T04:32:08;3.50;70.90
38488;DHT22;57384;51.986;4.458;2023-03-03T04:34:34;3.50;70.90
38488;DHT22;57384;51.986;4.458;2023-03-03T04:37:01;3.50;70.90
38488;DHT22;57384;51.986;4.458;2023-03-03T04:39:27;3.50;70.90
38488;DHT22;57384;51.986;4.458;2023-03-03T04:41:54;3.50;70.90
38488;DHT22;57384;51.986;4.458;2023-03-03T04:44:21;3.50;71.00
38488;DHT22;57384;51.986;4.458;2023-03-03T04:46:47;3.60;71.10
38488;DHT22;57384;51.986;4.458;2023-03-03T04:49:13;3.60;71.00
38488;DHT22;57384;51.986;4.458;2023-03-03T04:51:40;3.60;71.10
38488;DHT22;57384;51.986;4.458;2023-03-03T04:54:06;3.60;71.00
38488;DHT22;57384;51.986;4.458;2023-03-03T04:56:36;3.60;71.00
38488;DHT22;57384;51.986;4.458;2023-03-03T04:59:02;3.70;71.10
38488;DHT22;57384;51.986;4.458;2023-03-03T05:01:29;3.70;71.10
38488;DHT22;57384;51.986;4.458;2023-03-03T05:03:55;3.70;71.10
38488;DHT22;57384;51.986;4.458;2023-03-03T05:06:22;3.70;71.10
38488;DHT22;57384;51.986;4.458;2023-03-03T05:08:48;3.70;71.10
38488;DHT22;57384;51.986;4.458;2023-03-03T05:11:15;3.80;71.20
38488;DHT22;57384;51.986;4.458;2023-03-03T05:13:41;3.70;71.10
38488;DHT22;57384;51.986;4.458;2023-03-03T05:16:08;3.70;71.10
38488;DHT22;57384;51.986;4.458;2023-03-03T05:18:34;3.70;71.10
38488;DHT22;57384;51.986;4.458;2023-03-03T05:21:01;3.80;71.20
38488;DHT22;57384;51.986;4.458;2023-03-03T05:23:27;3.70;71.20
38488;DHT22;57384;51.986;4.458;2023-03-03T05:25:54;3.70;71.20
38488;DHT22;57384;51.986;4.458;2023-03-03T05:28:20;3.80;71.30
38488;DHT22;57384;51.986;4.458;2023-03-03T05:30:47;3.80;71.20
38488;DHT22;57384;51.986;4.458;2023-03-03T05:33:14;3.80;71.30
38488;DHT22;57384;51.986;4.458;2023-03-03T05:35:40;3.80;71.30
38488;DHT22;57384;51.986;4.458;2023-03-03T05:38:07;3.80;71.30
38488;DHT22;57384;51.986;4.458;2023-03-03T05:40:33;3.80;71.40
38488;DHT22;57384;51.986;4.458;2023-03-03T05:43:00;3.80;71.40
38488;DHT22;57384;51.986;4.458;2023-03-03T05:45:26;3.90;71.50
38488;DHT22;57384;51.986;4.458;2023-03-03T05:47:53;3.90;71.50
38488;DHT22;57384;51.986;4.458;2023-03-03T05:50:21;3.90;71.50
38488;DHT22;57384;51.986;4.458;2023-03-03T05:52:48;3.90;71.50
38488;DHT22;57384;51.986;4.458;2023-03-03T05:55:15;3.90;71.50
38488;DHT22;57384;51.986;4.458;2023-03-03T05:57:42;3.90;71.50
38488;DHT22;57384;51.986;4.458;2023-03-03T06:00:08;3.90;71.60
38488;DHT22;57384;51.986;4.458;2023-03-03T06:02:35;3.90;71.50
38488;DHT22;57384;51.986;4.458;2023-03-03T06:05:01;3.90;71.60
38488;DHT22;57384;51.986;4.458;2023-03-03T06:07:28;3.90;71.60
38488;DHT22;57384;51.986;4.458;2023-03-03T06:09:54;4.00;71.70
38488;DHT22;57384;51.986;4.458;2023-03-03T06:12:21;4.00;71.60
38488;DHT22;57384;51.986;4.458;2023-03-03T06:14:47;4.00;71.70
38488;DHT22;57384;51.986;4.458;2023-03-03T06:17:14;4.00;71.70
38488;DHT22;57384;51.986;4.458;2023-03-03T06:19:40;4.00;71.70
38488;DHT22;57384;51.986;4.458;2023-03-03T06:22:07;4.00;71.70
38488;DHT22;57384;51.986;4.458;2023-03-03T06:24:34;4.00;71.70
38488;DHT22;57384;51.986;4.458;2023-03-03T06:27:00;4.00;71.70
38488;DHT22;57384;51.986;4.458;2023-03-03T06:29:27;4.10;71.70
38488;DHT22;57384;51.986;4.458;2023-03-03T06:31:54;4.00;71.70
38488;DHT22;57384;51.986;4.458;2023-03-03T06:34:20;4.10;71.80
38488;DHT22;57384;51.986;4.458;2023-03-03T06:36:47;4.10;71.80
38488;DHT22;57384;51.986;4.458;2023-03-03T06:39:13;4.10;71.80
38488;DHT22;57384;51.986;4.458;2023-03-03T06:41:40;4.10;71.80
38488;DHT22;57384;51.986;4.458;2023-03-03T06:44:12;4.10;71.80
38488;DHT22;57384;51.986;4.458;2023-03-03T06:46:38;4.10;71.80
38488;DHT22;57384;51.986;4.458;2023-03-03T06:49:05;4.10;71.80
38488;DHT22;57384;51.986;4.458;2023-03-03T06:51:35;4.10;71.80
38488;DHT22;57384;51.986;4.458;2023-03-03T06:54:13;4.10;71.80
38488;DHT22;57384;51.986;4.458;2023-03-03T06:56:40;4.20;71.90
38488;DHT22;57384;51.986;4.458;2023-03-03T06:59:14;4.20;72.00
38488;DHT22;57384;51.986;4.458;2023-03-03T07:01:41;4.20;72.00
38488;DHT22;57384;51.986;4.458;2023-03-03T07:04:16;4.20;71.90
38488;DHT22;57384;51.986;4.458;2023-03-03T07:06:47;4.20;71.90
38488;DHT22;57384;51.986;4.458;2023-03-03T07:09:20;4.20;71.90
38488;DHT22;57384;51.986;4.458;2023-03-03T07:11:46;4.20;72.00
38488;DHT22;57384;51.986;4.458;2023-03-03T07:14:14;4.20;72.00
38488;DHT22;57384;51.986;4.458;2023-03-03T07:16:41;4.30;72.00
38488;DHT22;57384;51.986;4.458;2023-03-03T07:19:18;4.30;72.00
38488;DHT22;57384;51.986;4.458;2023-03-03T07:21:46;4.30;72.00
38488;DHT22;57384;51.986;4.458;2023-03-03T07:24:46;4.30;72.10
38488;DHT22;57384;51.986;4.458;2023-03-03T07:29:32;4.30;72.10
38488;DHT22;57384;51.986;4.458;2023-03-03T07:31:59;4.30;72.10
38488;DHT22;57384;51.986;4.458;2023-03-03T07:39:42;4.30;72.10
38488;DHT22;57384;51.986;4.458;2023-03-03T07:44:45;4.40;72.10
38488;DHT22;57384;51.986;4.458;2023-03-03T07:47:19;4.40;72.10
38488;DHT22;57384;51.986;4.458;2023-03-03T07:49:48;4.40;72.10
38488;DHT22;57384;51.986;4.458;2023-03-03T07:54:54;4.40;72.10
38488;DHT22;57384;51.986;4.458;2023-03-03T07:57:22;4.50;72.20
38488;DHT22;57384;51.986;4.458;2023-03-03T07:59:51;4.50;72.20
38488;DHT22;57384;51.986;4.458;2023-03-03T08:02:33;4.50;72.20
38488;DHT22;57384;51.986;4.458;2023-03-03T08:05:01;4.60;72.30
38488;DHT22;57384;51.986;4.458;2023-03-03T08:07:41;4.60;72.20
38488;DHT22;57384;51.986;4.458;2023-03-03T08:10:24;4.60;72.30
38488;DHT22;57384;51.986;4.458;2023-03-03T08:12:51;4.60;72.30
38488;DHT22;57384;51.986;4.458;2023-03-03T08:17:48;4.70;72.30
38488;DHT22;57384;51.986;4.458;2023-03-03T08:22:54;4.70;72.30
38488;DHT22;57384;51.986;4.458;2023-03-03T08:25:20;4.80;72.30
38488;DHT22;57384;51.986;4.458;2023-03-03T08:27:47;4.80;72.30
38488;DHT22;57384;51.986;4.458;2023-03-03T08:30:13;4.80;72.30
38488;DHT22;57384;51.986;4.458;2023-03-03T08:32:40;4.80;72.40
38488;DHT22;57384;51.986;4.458;2023-03-03T08:35:07;4.80;72.40
38488;DHT22;57384;51.986;4.458;2023-03-03T08:37:33;4.90;72.40
38488;DHT22;57384;51.986;4.458;2023-03-03T08:40:00;4.90;72.50
38488;DHT22;57384;51.986;4.458;2023-03-03T08:42:26;4.90;72.40
38488;DHT22;57384;51.986;4.458;2023-03-03T08:44:52;5.00;72.50
38488;DHT22;57384;51.986;4.458;2023-03-03T08:47:19;5.00;72.50
38488;DHT22;57384;51.986;4.458;2023-03-03T08:49:45;5.00;72.50
38488;DHT22;57384;51.986;4.458;2023-03-03T08:52:12;5.00;72.40
38488;DHT22;57384;51.986;4.458;2023-03-03T08:54:38;5.00;72.40
38488;DHT22;57384;51.986;4.458;2023-03-03T08:57:05;5.10;72.40
38488;DHT22;57384;51.986;4.458;2023-03-03T08:59:31;5.20;72.50
38488;DHT22;57384;51.986;4.458;2023-03-03T09:01:58;5.20;72.40
38488;DHT22;57384;51.986;4.458;2023-03-03T09:04:24;5.20;72.40
38488;DHT22;57384;51.986;4.458;2023-03-03T09:06:51;5.20;72.40
38488;DHT22;57384;51.986;4.458;2023-03-03T09:09:18;5.30;72.50
38488;DHT22;57384;51.986;4.458;2023-03-03T09:11:45;5.30;72.40
38488;DHT22;57384;51.986;4.458;2023-03-03T09:14:12;5.30;72.40
38488;DHT22;57384;51.986;4.458;2023-03-03T09:16:44;5.40;72.40
38488;DHT22;57384;51.986;4.458;2023-03-03T09:19:18;5.40;72.40
38488;DHT22;57384;51.986;4.458;2023-03-03T09:21:46;5.50;72.40
38488;DHT22;57384;51.986;4.458;2023-03-03T09:24:17;5.50;72.40
38488;DHT22;57384;51.986;4.458;2023-03-03T09:26:48;5.60;72.40
38488;DHT22;57384;51.986;4.458;2023-03-03T09:29:28;5.60;72.40
38488;DHT22;57384;51.986;4.458;2023-03-03T09:31:56;5.70;72.40
38488;DHT22;57384;51.986;4.458;2023-03-03T09:37:01;5.70;72.30
38488;DHT22;57384;51.986;4.458;2023-03-03T09:39:37;5.80;72.40
38488;DHT22;57384;51.986;4.458;2023-03-03T09:52:36;6.00;72.30
38488;DHT22;57384;51.986;4.458;2023-03-03T10:05:42;6.50;71.90
38488;DHT22;57384;51.986;4.458;2023-03-03T10:10:44;6.90;71.40
38488;DHT22;57384;51.986;4.458;2023-03-03T10:23:45;7.80;70.70
38488;DHT22;57384;51.986;4.458;2023-03-03T10:29:04;8.20;70.50
38488;DHT22;57384;51.986;4.458;2023-03-03T10:31:36;8.40;70.40
38488;DHT22;57384;51.986;4.458;2023-03-03T10:36:37;8.80;70.90
38488;DHT22;57384;51.986;4.458;2023-03-03T10:39:17;9.00;70.20
38488;DHT22;57384;51.986;4.458;2023-03-03T10:42:08;9.10;70.20
38488;DHT22;57384;51.986;4.458;2023-03-03T10:57:45;10.40;70.10
38488;DHT22;57384;51.986;4.458;2023-03-03T11:05:39;11.00;70.10
38488;DHT22;57384;51.986;4.458;2023-03-03T11:08:08;11.20;70.10
38488;DHT22;57384;51.986;4.458;2023-03-03T11:18:34;12.10;70.10
38488;DHT22;57384;51.986;4.458;2023-03-03T11:23:38;12.50;70.00
38488;DHT22;57384;51.986;4.458;2023-03-03T11:31:08;13.10;70.50
38488;DHT22;57384;51.986;4.458;2023-03-03T11:41:10;13.90;69.90
38488;DHT22;57384;51.986;4.458;2023-03-03T11:43:43;14.00;69.90
38488;DHT22;57384;51.986;4.458;2023-03-03T11:46:13;14.20;70.00
38488;DHT22;57384;51.986;4.458;2023-03-03T11:51:12;14.30;70.10
38488;DHT22;57384;51.986;4.458;2023-03-03T11:53:43;14.40;70.30
38488;DHT22;57384;51.986;4.458;2023-03-03T11:58:52;14.50;70.60
38488;DHT22;57384;51.986;4.458;2023-03-03T12:01:25;14.50;70.70
38488;DHT22;57384;51.986;4.458;2023-03-03T12:06:35;14.60;71.10
38488;DHT22;57384;51.986;4.458;2023-03-03T12:14:20;14.50;71.50
38488;DHT22;57384;51.986;4.458;2023-03-03T12:17:00;14.40;71.60
38488;DHT22;57384;51.986;4.458;2023-03-03T12:19:37;14.40;71.80
38488;DHT22;57384;51.986;4.458;2023-03-03T12:27:39;14.30;72.20
38488;DHT22;57384;51.986;4.458;2023-03-03T12:40:27;14.00;72.50
38488;DHT22;57384;51.986;4.458;2023-03-03T12:43:07;13.90;72.50
38488;DHT22;57384;51.986;4.458;2023-03-03T12:45:37;13.90;72.40
38488;DHT22;57384;51.986;4.458;2023-03-03T12:48:13;13.80;72.40
38488;DHT22;57384;51.986;4.458;2023-03-03T12:56:11;13.70;72.20
38488;DHT22;57384;51.986;4.458;2023-03-03T13:01:20;13.80;71.90
38488;DHT22;57384;51.986;4.458;2023-03-03T13:06:47;13.90;71.40
38488;DHT22;57384;51.986;4.458;2023-03-03T13:12:01;14.00;71.10
38488;DHT22;57384;51.986;4.458;2023-03-03T13:19:43;14.10;71.00
38488;DHT22;57384;51.986;4.458;2023-03-03T13:22:12;14.00;70.80
38488;DHT22;57384;51.986;4.458;2023-03-03T13:37:04;13.90;70.80
38488;DHT22;57384;51.986;4.458;2023-03-03T13:39:37;13.90;70.80
38488;DHT22;57384;51.986;4.458;2023-03-03T13:42:07;13.80;70.70
38488;DHT22;57384;51.986;4.458;2023-03-03T13:44:40;13.80;70.70
38488;DHT22;57384;51.986;4.458;2023-03-03T13:47:25;13.80;70.70
38488;DHT22;57384;51.986;4.458;2023-03-03T13:52:20;13.70;70.60
38488;DHT22;57384;51.986;4.458;2023-03-03T13:54:50;13.70;70.60
38488;DHT22;57384;51.986;4.458;2023-03-03T13:59:54;13.70;70.50
38488;DHT22;57384;51.986;4.458;2023-03-03T14:04:52;13.60;70.40
38488;DHT22;57384;51.986;4.458;2023-03-03T14:07:40;13.60;70.40
38488;DHT22;57384;51.986;4.458;2023-03-03T14:10:12;13.50;70.30
38488;DHT22;57384;51.986;4.458;2023-03-03T14:12:49;13.60;70.40
38488;DHT22;57384;51.986;4.458;2023-03-03T14:20:32;13.50;70.40
38488;DHT22;57384;51.986;4.458;2023-03-03T14:23:03;13.40;70.20
38488;DHT22;57384;51.986;4.458;2023-03-03T14:28:14;13.30;70.20
38488;DHT22;57384;51.986;4.458;2023-03-03T14:30:42;13.30;70.20
38488;DHT22;57384;51.986;4.458;2023-03-03T14:35:37;13.20;70.20
38488;DHT22;57384;51.986;4.458;2023-03-03T14:40:36;13.10;70.20
38488;DHT22;57384;51.986;4.458;2023-03-03T14:45:48;13.00;70.20
38488;DHT22;57384;51.986;4.458;2023-03-03T14:50:48;13.00;70.10
38488;DHT22;57384;51.986;4.458;2023-03-03T14:55:51;12.90;70.00
38488;DHT22;57384;51.986;4.458;2023-03-03T14:58:28;12.90;70.00
38488;DHT22;57384;51.986;4.458;2023-03-03T15:01:08;12.90;70.00
38488;DHT22;57384;51.986;4.458;2023-03-03T15:03:34;12.80;70.00
38488;DHT22;57384;51.986;4.458;2023-03-03T15:06:01;12.80;69.90
38488;DHT22;57384;51.986;4.458;2023-03-03T15:08:31;12.70;70.50
38488;DHT22;57384;51.986;4.458;2023-03-03T15:13:45;12.70;69.90
38488;DHT22;57384;51.986;4.458;2023-03-03T15:16:22;12.60;69.90
38488;DHT22;57384;51.986;4.458;2023-03-03T15:21:22;12.50;69.90
38488;DHT22;57384;51.986;4.458;2023-03-03T15:23:53;12.50;69.90
38488;DHT22;57384;51.986;4.458;2023-03-03T15:29:24;12.40;70.00
38488;DHT22;57384;51.986;4.458;2023-03-03T15:47:16;12.10;69.70
38488;DHT22;57384;51.986;4.458;2023-03-03T15:49:52;12.10;69.70
38488;DHT22;57384;51.986;4.458;2023-03-03T15:57:21;12.00;69.60
38488;DHT22;57384;51.986;4.458;2023-03-03T15:59:53;11.90;69.60
38488;DHT22;57384;51.986;4.458;2023-03-03T16:02:39;11.90;69.60
38488;DHT22;57384;51.986;4.458;2023-03-03T16:05:15;11.90;69.70
38488;DHT22;57384;51.986;4.458;2023-03-03T16:12:49;11.70;69.60
38488;DHT22;57384;51.986;4.458;2023-03-03T16:18:11;11.70;69.60
38488;DHT22;57384;51.986;4.458;2023-03-03T16:29:00;11.40;69.40
38488;DHT22;57384;51.986;4.458;2023-03-03T16:34:19;11.40;69.40
38488;DHT22;57384;51.986;4.458;2023-03-03T16:42:16;11.20;69.50
38488;DHT22;57384;51.986;4.458;2023-03-03T16:50:09;11.10;69.40
38488;DHT22;57384;51.986;4.458;2023-03-03T16:52:46;11.00;69.40
38488;DHT22;57384;51.986;4.458;2023-03-03T16:55:17;11.00;69.50
38488;DHT22;57384;51.986;4.458;2023-03-03T16:58:09;10.90;69.50
38488;DHT22;57384;51.986;4.458;2023-03-03T17:00:40;10.90;69.50
38488;DHT22;57384;51.986;4.458;2023-03-03T17:03:22;10.80;69.40
38488;DHT22;57384;51.986;4.458;2023-03-03T17:05:53;10.80;69.50
38488;DHT22;57384;51.986;4.458;2023-03-03T17:16:44;10.60;69.40
38488;DHT22;57384;51.986;4.458;2023-03-03T17:27:06;10.40;69.50
38488;DHT22;57384;51.986;4.458;2023-03-03T17:29:38;10.30;69.50
38488;DHT22;57384;51.986;4.458;2023-03-03T17:37:22;10.10;69.50
38488;DHT22;57384;51.986;4.458;2023-03-03T17:45:04;10.00;69.60
38488;DHT22;57384;51.986;4.458;2023-03-03T17:47:52;9.90;69.50
38488;DHT22;57384;51.986;4.458;2023-03-03T17:50:29;9.90;69.60
38488;DHT22;57384;51.986;4.458;2023-03-03T18:06:23;9.60;69.70
38488;DHT22;57384;51.986;4.458;2023-03-03T18:14:35;9.50;69.70
38488;DHT22;57384;51.986;4.458;2023-03-03T18:20:00;9.40;69.70
38488;DHT22;57384;51.986;4.458;2023-03-03T18:22:30;9.40;69.70
38488;DHT22;57384;51.986;4.458;2023-03-03T18:25:03;9.30;69.70
38488;DHT22;57384;51.986;4.458;2023-03-03T18:27:41;9.30;69.80
38488;DHT22;57384;51.986;4.458;2023-03-03T18:32:57;9.30;69.80
38488;DHT22;57384;51.986;4.458;2023-03-03T18:48:58;9.00;69.90
38488;DHT22;57384;51.986;4.458;2023-03-03T18:57:03;8.90;69.90
38488;DHT22;57384;51.986;4.458;2023-03-03T19:04:48;8.80;69.80
38488;DHT22;57384;51.986;4.458;2023-03-03T19:07:17;8.80;69.80
38488;DHT22;57384;51.986;4.458;2023-03-03T19:09:54;8.80;69.90
38488;DHT22;57384;51.986;4.458;2023-03-03T19:12:41;8.70;69.90
38488;DHT22;57384;51.986;4.458;2023-03-03T19:17:52;8.70;69.90
38488;DHT22;57384;51.986;4.458;2023-03-03T19:20:22;8.60;69.90
38488;DHT22;57384;51.986;4.458;2023-03-03T19:23:00;8.70;70.00
38488;DHT22;57384;51.986;4.458;2023-03-03T19:25:28;8.60;69.90
38488;DHT22;57384;51.986;4.458;2023-03-03T19:42:00;8.50;69.90
38488;DHT22;57384;51.986;4.458;2023-03-03T19:54:53;8.40;70.00
38488;DHT22;57384;51.986;4.458;2023-03-03T20:00:14;8.40;70.00
38488;DHT22;57384;51.986;4.458;2023-03-03T20:02:50;8.30;70.00
38488;DHT22;57384;51.986;4.458;2023-03-03T20:05:29;8.30;70.00
38488;DHT22;57384;51.986;4.458;2023-03-03T20:20:50;8.20;70.00
38488;DHT22;57384;51.986;4.458;2023-03-03T20:26:00;8.20;70.00
38488;DHT22;57384;51.986;4.458;2023-03-03T20:33:38;8.10;70.00
38488;DHT22;57384;51.986;4.458;2023-03-03T20:44:32;8.10;70.00
38488;DHT22;57384;51.986;4.458;2023-03-03T20:49:44;8.10;70.10
38488;DHT22;57384;51.986;4.458;2023-03-03T20:52:29;8.10;70.10
38488;DHT22;57384;51.986;4.458;2023-03-03T21:05:22;8.10;70.10
38488;DHT22;57384;51.986;4.458;2023-03-03T21:07:50;8.00;70.10
38488;DHT22;57384;51.986;4.458;2023-03-03T21:10:17;8.00;70.10
38488;DHT22;57384;51.986;4.458;2023-03-03T21:12:44;8.00;70.10
38488;DHT22;57384;51.986;4.458;2023-03-03T21:15:29;8.00;70.10
38488;DHT22;57384;51.986;4.458;2023-03-03T21:17:56;8.00;70.20
38488;DHT22;57384;51.986;4.458;2023-03-03T21:20:27;8.00;70.20
38488;DHT22;57384;51.986;4.458;2023-03-03T21:22:55;8.00;70.80
38488;DHT22;57384;51.986;4.458;2023-03-03T21:25:41;7.90;70.10
38488;DHT22;57384;51.986;4.458;2023-03-03T21:28:17;7.90;70.10
38488;DHT22;57384;51.986;4.458;2023-03-03T21:31:02;7.90;70.20
38488;DHT22;57384;51.986;4.458;2023-03-03T21:36:11;7.90;70.20
38488;DHT22;57384;51.986;4.458;2023-03-03T21:38:40;7.90;70.20
38488;DHT22;57384;51.986;4.458;2023-03-03T21:41:10;7.90;70.20
38488;DHT22;57384;51.986;4.458;2023-03-03T21:43:38;7.90;70.20
38488;DHT22;57384;51.986;4.458;2023-03-03T21:46:08;7.90;70.20
38488;DHT22;57384;51.986;4.458;2023-03-03T21:48:38;7.90;70.20
38488;DHT22;57384;51.986;4.458;2023-03-03T21:51:04;7.90;70.30
38488;DHT22;57384;51.986;4.458;2023-03-03T21:53:31;7.80;70.20
38488;DHT22;57384;51.986;4.458;2023-03-03T21:56:01;7.90;70.30
38488;DHT22;57384;51.986;4.458;2023-03-03T21:58:30;7.90;70.30
38488;DHT22;57384;51.986;4.458;2023-03-03T22:00:56;7.80;70.20
38488;DHT22;57384;51.986;4.458;2023-03-03T22:03:23;7.90;70.30
38488;DHT22;57384;51.986;4.458;2023-03-03T22:05:49;7.80;70.30
38488;DHT22;57384;51.986;4.458;2023-03-03T22:08:18;7.80;70.30
38488;DHT22;57384;51.986;4.458;2023-03-03T22:10:47;7.80;70.30
38488;DHT22;57384;51.986;4.458;2023-03-03T22:13:14;7.80;70.30
38488;DHT22;57384;51.986;4.458;2023-03-03T22:15:40;7.80;70.30
38488;DHT22;57384;51.986;4.458;2023-03-03T22:18:10;7.80;70.30
38488;DHT22;57384;51.986;4.458;2023-03-03T22:20:36;7.80;70.30
38488;DHT22;57384;51.986;4.458;2023-03-03T22:23:13;7.80;70.40
38488;DHT22;57384;51.986;4.458;2023-03-03T22:25:40;7.80;70.30
38488;DHT22;57384;51.986;4.458;2023-03-03T22:28:07;7.70;70.30
38488;DHT22;57384;51.986;4.458;2023-03-03T22:30:36;7.80;70.40
38488;DHT22;57384;51.986;4.458;2023-03-03T22:33:07;7.70;70.40
38488;DHT22;57384;51.986;4.458;2023-03-03T22:35:34;7.70;70.40
38488;DHT22;57384;51.986;4.458;2023-03-03T22:38:03;7.70;70.40
38488;DHT22;57384;51.986;4.458;2023-03-03T22:40:29;7.70;70.40
38488;DHT22;57384;51.986;4.458;2023-03-03T22:43:01;7.70;70.40
38488;DHT22;57384;51.986;4.458;2023-03-03T22:45:27;7.70;70.40
38488;DHT22;57384;51.986;4.458;2023-03-03T22:47:54;7.70;70.40
38488;DHT22;57384;51.986;4.458;2023-03-03T22:50:21;7.70;70.40
38488;DHT22;57384;51.986;4.458;2023-03-03T22:52:47;7.70;70.40
38488;DHT22;57384;51.986;4.458;2023-03-03T22:55:17;7.70;70.40
38488;DHT22;57384;51.986;4.458;2023-03-03T22:57:51;7.70;70.40